createdAt,value
2019-05-29T10:55:11.094Z,42.08
2019-05-29T10:59:15.989Z,41.00
2019-05-29T11:03:20.889Z,42.67
2019-05-29T11:07:25.779Z,41.62
2019-05-29T11:11:30.677Z,41.53
2019-05-29T11:15:35.581Z,41.50
2019-05-29T11:19:40.493Z,39.83
2019-05-29T11:23:45.372Z,39.63
2019-05-29T11:27:50.492Z,40.43
2019-05-29T11:31:56.831Z,41.06
2019-05-29T11:36:12.348Z,40.99
2019-05-29T11:40:09.480Z,39.85
2019-05-29T11:49:03.638Z,39.60
2019-05-29T11:53:08.718Z,39.32
2019-05-29T11:57:13.629Z,39.74
2019-05-29T12:01:18.516Z,40.70
2019-05-29T12:05:23.495Z,40.90
2019-05-29T12:09:33.026Z,39.70
2019-05-29T12:13:34.988Z,40.02
2019-05-29T12:17:40.366Z,42.02
2019-05-29T12:21:45.659Z,40.98
2019-05-29T12:26:10.331Z,40.58
2019-05-29T12:29:57.144Z,40.12
2019-05-29T12:34:12.795Z,39.26
2019-05-29T12:38:08.649Z,37.80
2019-05-29T12:42:13.549Z,38.13
2019-05-29T12:46:18.438Z,39.04
2019-05-29T12:50:23.670Z,38.45
2019-05-29T12:54:28.580Z,37.94
2019-05-29T12:58:33.483Z,38.67
2019-05-29T13:02:38.388Z,38.02
2019-05-29T13:06:43.287Z,38.24
2019-05-29T13:10:48.180Z,38.30
2019-05-29T13:14:54.390Z,37.38
2019-05-29T13:19:01.073Z,37.97
2019-05-29T13:23:07.281Z,38.34
2019-05-29T13:27:13.529Z,38.49
2019-05-29T13:31:18.435Z,39.26
2019-05-29T13:35:23.329Z,39.84
2019-05-29T13:39:30.025Z,39.79
2019-05-29T13:43:35.010Z,39.44
2019-05-29T13:47:39.920Z,39.47
2019-05-29T13:51:44.830Z,38.30
2019-05-29T13:55:50.046Z,37.82
2019-05-29T13:59:54.936Z,38.87
2019-05-29T14:04:00.147Z,38.98
2019-05-29T14:08:05.124Z,37.25
2019-05-29T14:12:10.030Z,36.87
2019-05-29T14:16:14.927Z,37.98
2019-05-29T14:20:20.029Z,37.78
2019-05-29T14:24:29.665Z,38.57
2019-05-29T14:28:31.541Z,37.32
2019-05-29T14:32:36.449Z,36.69
2019-05-29T14:36:41.344Z,38.17
2019-05-29T14:40:46.241Z,37.33
2019-05-29T14:44:51.129Z,37.90
2019-05-29T14:48:56.031Z,38.02
2019-05-29T14:53:00.928Z,38.06
2019-05-29T14:57:19.235Z,43.20
2019-05-29T15:01:13.321Z,38.07
2019-05-29T15:05:18.662Z,40.77
2019-05-29T15:09:27.322Z,37.99
2019-05-29T15:13:33.675Z,37.49
2019-05-29T15:17:39.415Z,38.69
2019-05-29T15:21:44.313Z,37.30
2019-05-29T15:25:49.212Z,37.04
2019-05-29T15:29:54.109Z,37.21
2019-05-29T15:33:59.007Z,37.47
2019-05-29T15:38:03.901Z,36.38
2019-05-29T15:42:08.987Z,37.06
2019-05-29T15:46:15.954Z,35.87
2019-05-29T15:50:20.719Z,37.47
2019-05-29T15:54:25.615Z,35.78
2019-05-29T15:58:30.513Z,36.22
2019-05-29T16:02:35.409Z,36.02
2019-05-29T16:06:41.390Z,35.31
2019-05-29T16:10:46.284Z,34.92
2019-05-29T16:14:51.182Z,35.47
2019-05-29T16:18:56.072Z,35.90
2019-05-29T16:23:00.963Z,35.88
2019-05-29T16:27:08.815Z,35.00
2019-05-29T16:31:12.583Z,34.91
2019-05-29T16:35:17.505Z,35.69
2019-05-29T16:39:22.825Z,36.41
2019-05-29T16:43:27.688Z,36.54
2019-05-29T16:47:32.590Z,36.51
2019-05-29T16:51:37.487Z,36.47
2019-05-29T16:55:53.472Z,35.74
2019-05-29T16:59:48.987Z,36.16
2019-05-29T17:03:53.877Z,36.64
2019-05-29T17:07:58.780Z,36.84
2019-05-29T17:12:03.759Z,37.29
2019-05-29T17:16:08.661Z,37.45
2019-05-29T17:20:14.998Z,37.61
2019-05-29T17:24:20.908Z,37.55
2019-05-29T17:28:28.065Z,37.92
2019-05-29T17:32:32.480Z,37.74
2019-05-29T17:36:37.383Z,37.68
2019-05-29T17:40:42.643Z,37.72
2019-05-29T17:44:47.543Z,37.96
2019-05-29T17:48:52.441Z,37.85
2019-05-29T17:52:57.347Z,38.01
2019-05-29T17:57:02.259Z,37.94
2019-05-29T18:01:07.220Z,38.33
2019-05-29T18:05:12.439Z,38.15
2019-05-29T18:09:18.948Z,38.54
2019-05-29T18:13:25.308Z,38.57
2019-05-29T18:17:30.259Z,38.82
2019-05-29T18:21:35.147Z,39.62
2019-05-29T18:25:40.101Z,40.12
2019-05-29T18:29:45.022Z,40.32
2019-05-29T18:33:49.997Z,40.43
2019-05-29T18:37:54.897Z,40.43
2019-05-29T18:41:59.804Z,40.75
2019-05-29T18:46:04.761Z,41.33
2019-05-29T18:50:10.811Z,41.82
2019-05-29T18:54:15.772Z,42.50
2019-05-29T18:58:22.103Z,43.14
2019-05-29T19:02:27.479Z,43.61
2019-05-29T19:06:32.459Z,44.13
2019-05-29T19:10:37.362Z,44.67
2019-05-29T19:14:42.258Z,45.04
2019-05-29T19:18:47.155Z,45.89
2019-05-29T19:22:52.057Z,48.21
2019-05-29T19:26:56.957Z,48.59
2019-05-29T19:31:01.863Z,49.17
2019-05-29T19:35:08.975Z,50.25
2019-05-29T19:39:13.943Z,51.55
2019-05-29T19:43:18.851Z,52.25
2019-05-29T19:47:24.595Z,52.63
2019-05-29T19:51:31.414Z,53.51
2019-05-29T19:55:38.291Z,54.57
2019-05-29T19:59:42.973Z,55.24
2019-05-29T20:03:48.943Z,55.56
2019-05-29T20:07:54.016Z,56.15
2019-05-29T20:11:58.909Z,56.45
2019-05-29T20:16:03.891Z,57.54
2019-05-29T20:20:09.127Z,57.54
2019-05-29T20:24:14.032Z,58.36
2019-05-29T20:28:18.923Z,58.42
2019-05-29T20:32:23.844Z,59.04
2019-05-29T20:36:28.723Z,59.73
2019-05-29T20:40:33.618Z,59.89
2019-05-29T20:44:38.785Z,60.30
2019-05-29T20:48:43.812Z,61.47
2019-05-29T20:52:48.697Z,62.39
2019-05-29T20:56:53.594Z,62.79
2019-05-29T21:00:58.560Z,62.77
2019-05-29T21:05:04.327Z,63.07
2019-05-29T21:09:09.289Z,63.61
2019-05-29T21:13:14.178Z,63.61
2019-05-29T21:17:19.071Z,63.51
2019-05-29T21:21:23.971Z,63.68
2019-05-29T21:25:29.222Z,64.00
2019-05-29T21:29:35.153Z,64.26
2019-05-29T21:33:44.987Z,64.68
2019-05-29T21:37:46.766Z,64.88
2019-05-29T21:41:51.662Z,65.09
2019-05-29T21:45:56.556Z,65.14
2019-05-29T21:50:01.469Z,65.28
2019-05-29T21:54:06.411Z,66.00
2019-05-29T21:58:11.309Z,65.46
2019-05-29T22:02:16.204Z,65.32
2019-05-29T22:06:21.176Z,65.24
2019-05-29T22:10:26.448Z,65.42
2019-05-29T22:14:31.560Z,65.99
2019-05-29T22:18:36.462Z,66.47
2019-05-29T22:22:41.367Z,67.20
2019-05-29T22:26:46.265Z,67.72
2019-05-29T22:30:51.341Z,68.15
2019-05-29T22:34:57.551Z,68.46
2019-05-29T22:39:02.572Z,68.67
2019-05-29T22:43:07.842Z,68.96
2019-05-29T22:47:12.735Z,68.94
2019-05-29T22:51:17.633Z,69.25
2019-05-29T22:55:22.521Z,69.32
2019-05-29T22:59:31.963Z,69.26
2019-05-29T23:03:34.008Z,69.37
2019-05-29T23:07:38.906Z,69.26
2019-05-29T23:11:43.817Z,69.14
2019-05-29T23:15:48.722Z,69.09
2019-05-29T23:19:54.555Z,69.01
2019-05-29T23:23:59.620Z,68.99
2019-05-29T23:28:04.481Z,69.14
2019-05-29T23:32:09.383Z,69.20
2019-05-29T23:36:14.273Z,69.18
2019-05-29T23:40:19.300Z,69.75
2019-05-29T23:44:24.194Z,71.33
2019-05-29T23:48:29.094Z,72.21
2019-05-29T23:52:33.990Z,72.01
2019-05-29T23:56:38.888Z,72.25
